Time;durP1;ratioP1;P1;durP2;ratioP2;P2;SDS_P1;SDS_P2;PMS_P1;PMS_P2;Temp;Humidity;BMP_temperature;BMP_pressure;BME280_temperature;BME280_humidity;BME280_pressure;Samples;Min_cycle;Max_cycle;Signal;HPM_P1;HPM_P2
2022/04/20 00:01:59;;;;;;;0.10;0.10;;;;;;;;;;5109275;28;20244;-76
2022/04/20 00:04:25;;;;;;;0.10;0.10;;;;;;;;;;5091626;28;20225;-76
2022/04/20 00:06:51;;;;;;;0.10;0.10;;;;;;;;;;5107857;28;20237;-76
2022/04/20 00:09:17;;;;;;;0.10;0.10;;;;;;;;;;5092838;28;20513;-76
2022/04/20 00:11:45;;;;;;;0.10;0.10;;;;;;;;;;5105946;28;20429;-76
2022/04/20 00:14:12;;;;;;;0.10;0.10;;;;;;;;;;5094695;28;20368;-76
2022/04/20 00:16:40;;;;;;;0.10;0.10;;;;;;;;;;5104157;28;20243;-75
2022/04/20 00:19:06;;;;;;;0.10;0.10;;;;;;;;;;5096269;28;20281;-75
2022/04/20 00:21:32;;;;;;;0.10;0.10;;;;;;;;;;5102503;28;20237;-76
2022/04/20 00:23:58;;;;;;;0.10;0.10;;;;;;;;;;5098032;28;20210;-76
2022/04/20 00:26:25;;;;;;;0.10;0.10;;;;;;;;;;5100535;28;20362;-76
2022/04/20 00:28:51;;;;;;;0.10;0.10;;;;;;;;;;5099947;28;20205;-76
2022/04/20 00:31:18;;;;;;;0.10;0.10;;;;;;;;;;5098202;28;20240;-75
2022/04/20 00:33:46;;;;;;;0.10;0.10;;;;;;;;;;5101441;28;20206;-75
2022/04/20 00:36:12;;;;;;;0.10;0.10;;;;;;;;;;5096870;28;20289;-74
2022/04/20 00:38:38;;;;;;;0.10;0.10;;;;;;;;;;5103229;28;20266;-75
2022/04/20 00:41:05;;;;;;;0.10;0.10;;;;;;;;;;5095105;28;20301;-76
2022/04/20 00:43:31;;;;;;;0.10;0.10;;;;;;;;;;5104600;28;20218;-76
2022/04/20 00:45:59;;;;;;;0.10;0.10;;;;;;;;;;5092736;28;20242;-74
2022/04/20 00:48:26;;;;;;;0.10;0.10;;;;;;;;;;5106448;28;20408;-75
2022/04/20 00:50:53;;;;;;;0.10;0.10;;;;;;;;;;5091274;28;20571;-75
2022/04/20 00:53:20;;;;;;;0.10;0.10;;;;;;;;;;5108546;28;20210;-76
2022/04/20 00:55:46;;;;;;;0.10;0.10;;;;;;;;;;5089530;28;20293;-75
2022/04/20 00:58:13;;;;;;;0.10;0.10;;;;;;;;;;5110302;28;20246;-76
2022/04/20 01:00:39;;;;;;;0.10;0.10;;;;;;;;;;5085058;28;20252;-76
2022/04/20 01:03:06;;;;;;;0.10;0.10;;;;;;;;;;5108790;28;20249;-75
2022/04/20 01:05:32;;;;;;;0.10;0.10;;;;;;;;;;5081669;28;20240;-68
2022/04/20 01:08:00;;;;;;;0.10;0.10;;;;;;;;;;5111489;28;20198;-70
2022/04/20 01:10:26;;;;;;;0.10;0.10;;;;;;;;;;5080982;28;20318;-69
2022/04/20 01:12:52;;;;;;;0.10;0.10;;;;;;;;;;5112196;28;20520;-69
2022/04/20 01:15:18;;;;;;;0.10;0.10;;;;;;;;;;5078362;28;20222;-71
2022/04/20 01:17:45;;;;;;;0.10;0.10;;;;;;;;;;5114087;28;20291;-68
2022/04/20 01:20:14;;;;;;;0.10;0.10;;;;;;;;;;5076770;28;20512;-68
2022/04/20 01:22:42;;;;;;;0.10;0.10;;;;;;;;;;5115107;28;20250;-70
2022/04/20 01:25:09;;;;;;;0.10;0.10;;;;;;;;;;5075618;28;20243;-69
2022/04/20 01:27:35;;;;;;;0.10;0.10;;;;;;;;;;5116480;28;20196;-70
2022/04/20 01:30:01;;;;;;;0.10;0.10;;;;;;;;;;5085230;28;20206;-70
2022/04/20 01:32:28;;;;;;;0.10;0.10;;;;;;;;;;5107154;28;20417;-71
2022/04/20 01:34:54;;;;;;;0.10;0.10;;;;;;;;;;5084954;28;20523;-69
2022/04/20 01:37:21;;;;;;;0.20;0.20;;;;;;;;;;5106791;28;20239;-69
2022/04/20 01:39:49;;;;;;;0.10;0.10;;;;;;;;;;5084966;28;20599;-71
2022/04/20 01:42:15;;;;;;;0.10;0.10;;;;;;;;;;5106977;28;20294;-70
2022/04/20 01:44:41;;;;;;;0.10;0.10;;;;;;;;;;5084891;28;20272;-70
2022/04/20 01:47:08;;;;;;;0.10;0.10;;;;;;;;;;5106775;28;20490;-70
2022/04/20 01:49:34;;;;;;;0.10;0.10;;;;;;;;;;5084793;28;20203;-69
2022/04/20 01:52:00;;;;;;;0.10;0.10;;;;;;;;;;5105096;28;20244;-69
2022/04/20 01:54:26;;;;;;;0.10;0.10;;;;;;;;;;5086059;28;20494;-69
2022/04/20 01:56:54;;;;;;;0.10;0.10;;;;;;;;;;5103388;28;20302;-70
2022/04/20 01:59:20;;;;;;;0.10;0.10;;;;;;;;;;5087741;28;20497;-70
2022/04/20 02:04:31;;;;;;;0.10;0.10;;;;;;;;;;5084419;28;20254;-69
2022/04/20 02:06:57;;;;;;;0.10;0.10;;;;;;;;;;5104276;28;20236;-71
2022/04/20 02:09:26;;;;;;;0.10;0.10;;;;;;;;;;5086601;28;20394;-71
2022/04/20 02:11:54;;;;;;;0.10;0.10;;;;;;;;;;5101791;28;20332;-71
2022/04/20 02:14:20;;;;;;;0.10;0.10;;;;;;;;;;5087609;28;20353;-71
2022/04/20 02:16:46;;;;;;;0.10;0.10;;;;;;;;;;5101084;28;20344;-71
2022/04/20 02:19:13;;;;;;;0.10;0.10;;;;;;;;;;5089163;28;20581;-71
2022/04/20 02:21:39;;;;;;;0.10;0.10;;;;;;;;;;5096702;28;20293;-72
2022/04/20 02:24:05;;;;;;;0.10;0.10;;;;;;;;;;5092525;28;20243;-71
2022/04/20 02:26:32;;;;;;;0.10;0.10;;;;;;;;;;5097159;28;20568;-72
2022/04/20 02:28:59;;;;;;;0.10;0.10;;;;;;;;;;5093068;28;20244;-71
2022/04/20 02:31:26;;;;;;;0.10;0.10;;;;;;;;;;5094983;28;20473;-71
2022/04/20 02:33:52;;;;;;;0.10;0.10;;;;;;;;;;5095019;28;20231;-71
2022/04/20 02:36:18;;;;;;;0.10;0.10;;;;;;;;;;5092915;28;20240;-72
2022/04/20 02:38:44;;;;;;;0.10;0.10;;;;;;;;;;5096432;28;20266;-71
2022/04/20 02:41:11;;;;;;;0.10;0.10;;;;;;;;;;5091080;28;20300;-71
2022/04/20 02:43:37;;;;;;;0.10;0.10;;;;;;;;;;5098303;28;20400;-71
2022/04/20 02:46:05;;;;;;;0.10;0.10;;;;;;;;;;5088966;28;20478;-71
2022/04/20 02:48:31;;;;;;;0.10;0.10;;;;;;;;;;5099864;28;20216;-72
2022/04/20 02:50:57;;;;;;;0.10;0.10;;;;;;;;;;5087334;28;20490;-72
2022/04/20 02:53:24;;;;;;;0.10;0.10;;;;;;;;;;5101766;28;20317;-72
2022/04/20 02:55:50;;;;;;;0.10;0.10;;;;;;;;;;5085318;28;20276;-71
2022/04/20 02:58:16;;;;;;;0.10;0.10;;;;;;;;;;5103599;28;20206;-71
2022/04/20 03:00:44;;;;;;;0.10;0.10;;;;;;;;;;5083125;28;20280;-71
2022/04/20 03:03:13;;;;;;;0.10;0.10;;;;;;;;;;5105082;28;20258;-71
2022/04/20 03:05:42;;;;;;;0.10;0.10;;;;;;;;;;5082252;28;20236;-77
2022/04/20 03:08:08;;;;;;;0.10;0.10;;;;;;;;;;5105687;28;20241;-76
2022/04/20 03:10:34;;;;;;;0.10;0.10;;;;;;;;;;5080538;28;20275;-76
2022/04/20 03:13:00;;;;;;;0.10;0.10;;;;;;;;;;5108261;28;20197;-76
2022/04/20 03:15:27;;;;;;;0.10;0.10;;;;;;;;;;5078556;28;20571;-77
2022/04/20 03:17:55;;;;;;;0.10;0.10;;;;;;;;;;5110123;28;20370;-77
2022/04/20 03:20:40;;;;;;;0.10;0.10;;;;;;;;;;5071432;28;20298;-77
2022/04/20 03:23:07;;;;;;;0.10;0.10;;;;;;;;;;5096839;28;20533;-77
2022/04/20 03:25:34;;;;;;;0.10;0.10;;;;;;;;;;5080581;28;20247;-76
2022/04/20 03:28:00;;;;;;;0.10;0.10;;;;;;;;;;5107554;28;20194;-75
2022/04/20 03:30:27;;;;;;;0.10;0.10;;;;;;;;;;5078652;28;20332;-77
2022/04/20 03:32:54;;;;;;;0.10;0.10;;;;;;;;;;5109390;28;20220;-75
2022/04/20 03:35:20;;;;;;;0.10;0.10;;;;;;;;;;5076530;28;20203;-76
2022/04/20 03:37:46;;;;;;;0.10;0.10;;;;;;;;;;5111180;28;20237;-76
2022/04/20 03:40:14;;;;;;;0.10;0.10;;;;;;;;;;5074394;28;20208;-76
2022/04/20 03:42:42;;;;;;;0.10;0.10;;;;;;;;;;5113033;28;20216;-75
2022/04/20 03:45:08;;;;;;;0.10;0.10;;;;;;;;;;5073525;28;20240;-75
2022/04/20 03:47:35;;;;;;;0.10;0.10;;;;;;;;;;5114079;28;20242;-75
2022/04/20 03:50:01;;;;;;;0.10;0.10;;;;;;;;;;5083065;28;20290;-76
2022/04/20 03:52:28;;;;;;;0.10;0.10;;;;;;;;;;5105201;28;20239;-76
2022/04/20 03:54:54;;;;;;;0.10;0.10;;;;;;;;;;5082952;28;20213;-77
2022/04/20 03:57:22;;;;;;;0.10;0.10;;;;;;;;;;5104765;28;20229;-76
2022/04/20 03:59:48;;;;;;;0.10;0.10;;;;;;;;;;5082769;28;20216;-75
2022/04/20 04:02:15;;;;;;;0.10;0.10;;;;;;;;;;5104675;28;20239;-76
2022/04/20 04:04:41;;;;;;;0.10;0.10;;;;;;;;;;5082775;28;20205;-77
2022/04/20 04:07:07;;;;;;;0.10;0.10;;;;;;;;;;5104163;28;20279;-71
2022/04/20 04:09:33;;;;;;;0.10;0.10;;;;;;;;;;5082930;28;20537;-71
2022/04/20 04:12:00;;;;;;;0.10;0.10;;;;;;;;;;5103033;28;20290;-70
2022/04/20 04:14:27;;;;;;;0.10;0.10;;;;;;;;;;5083557;28;20277;-72
2022/04/20 04:16:53;;;;;;;0.10;0.10;;;;;;;;;;5101336;28;20248;-71
2022/04/20 04:19:20;;;;;;;0.10;0.10;;;;;;;;;;5085262;28;20204;-71
2022/04/20 04:21:47;;;;;;;0.10;0.10;;;;;;;;;;5099648;28;20245;-72
2022/04/20 04:24:34;;;;;;;0.10;0.10;;;;;;;;;;5087047;28;20236;-71
2022/04/20 04:26:59;;;;;;;0.10;0.10;;;;;;;;;;5102932;28;20235;-70
2022/04/20 04:29:28;;;;;;;0.10;0.10;;;;;;;;;;5083380;28;20235;-71
2022/04/20 04:31:54;;;;;;;0.10;0.10;;;;;;;;;;5101234;28;20235;-73
2022/04/20 04:34:21;;;;;;;0.10;0.10;;;;;;;;;;5085169;28;20367;-72
2022/04/20 04:36:47;;;;;;;0.10;0.10;;;;;;;;;;5102535;28;20241;-72
2022/04/20 04:39:14;;;;;;;0.10;0.10;;;;;;;;;;5090702;28;20442;-72
2022/04/20 04:41:42;;;;;;;0.10;0.10;;;;;;;;;;5101331;28;20247;-71
2022/04/20 04:44:08;;;;;;;0.10;0.10;;;;;;;;;;5092176;28;20231;-72
2022/04/20 04:49:19;;;;;;;0.10;0.10;;;;;;;;;;5088968;28;20253;-71
2022/04/20 04:51:45;;;;;;;0.10;0.10;;;;;;;;;;5102799;28;20240;-71
2022/04/20 04:54:11;;;;;;;0.10;0.10;;;;;;;;;;5090983;28;20511;-71
2022/04/20 04:56:38;;;;;;;0.10;0.10;;;;;;;;;;5099824;28;20231;-70
2022/04/20 04:59:04;;;;;;;0.10;0.10;;;;;;;;;;5093433;28;20414;-71
2022/04/20 05:01:30;;;;;;;0.10;0.10;;;;;;;;;;5098159;28;20288;-72
2022/04/20 05:03:58;;;;;;;0.10;0.10;;;;;;;;;;5094801;28;20209;-71
2022/04/20 05:06:24;;;;;;;0.10;0.10;;;;;;;;;;5096753;28;20488;-72
2022/04/20 05:08:50;;;;;;;0.10;0.10;;;;;;;;;;5096498;28;20247;-71
2022/04/20 05:11:17;;;;;;;0.10;0.10;;;;;;;;;;5094662;28;20252;-71
2022/04/20 05:13:43;;;;;;;0.10;0.10;;;;;;;;;;5098636;28;20232;-72
2022/04/20 05:16:11;;;;;;;0.10;0.10;;;;;;;;;;5092233;28;20240;-70
2022/04/20 05:18:37;;;;;;;0.10;0.10;;;;;;;;;;5099877;28;20206;-72
2022/04/20 05:21:05;;;;;;;0.10;0.10;;;;;;;;;;5090842;28;20248;-71
2022/04/20 05:23:31;;;;;;;0.10;0.10;;;;;;;;;;5101798;28;20221;-71
2022/04/20 05:25:57;;;;;;;0.10;0.10;;;;;;;;;;5089015;28;20302;-71
2022/04/20 05:28:23;;;;;;;0.10;0.10;;;;;;;;;;5103483;28;20208;-71
2022/04/20 05:30:49;;;;;;;0.10;0.10;;;;;;;;;;5086882;28;20255;-71
2022/04/20 05:33:16;;;;;;;0.10;0.10;;;;;;;;;;5105441;28;20436;-71
2022/04/20 05:35:42;;;;;;;0.10;0.10;;;;;;;;;;5084810;28;20414;-71
2022/04/20 05:43:38;;;;;;;0.10;0.10;;;;;;;;;;5099105;28;20207;-71
2022/04/20 05:46:05;;;;;;;0.10;0.10;;;;;;;;;;5089597;28;20240;-71
2022/04/20 05:48:32;;;;;;;0.10;0.10;;;;;;;;;;5101136;28;20205;-72
2022/04/20 05:50:58;;;;;;;0.13;0.13;;;;;;;;;;5088790;28;20239;-71
2022/04/20 05:53:25;;;;;;;0.10;0.10;;;;;;;;;;5102503;28;20196;-72
2022/04/20 05:55:52;;;;;;;0.10;0.10;;;;;;;;;;5087145;28;20244;-73
2022/04/20 05:58:18;;;;;;;0.10;0.10;;;;;;;;;;5104274;28;20465;-72
2022/04/20 06:00:44;;;;;;;0.13;0.13;;;;;;;;;;5084414;28;20250;-71
2022/04/20 06:03:11;;;;;;;0.10;0.10;;;;;;;;;;5106999;28;20216;-71
2022/04/20 06:05:38;;;;;;;0.10;0.10;;;;;;;;;;5083053;28;20303;-77
2022/04/20 06:08:05;;;;;;;0.10;0.10;;;;;;;;;;5107691;28;20243;-77
2022/04/20 06:10:33;;;;;;;0.10;0.10;;;;;;;;;;5081428;28;20245;-75
2022/04/20 06:12:59;;;;;;;0.10;0.10;;;;;;;;;;5109324;28;20261;-76
2022/04/20 06:15:25;;;;;;;0.10;0.10;;;;;;;;;;5079666;28;20531;-76
2022/04/20 06:17:52;;;;;;;0.10;0.10;;;;;;;;;;5111122;28;20541;-76
2022/04/20 06:20:18;;;;;;;0.10;0.10;;;;;;;;;;5077342;28;20200;-76
2022/04/20 06:22:45;;;;;;;0.10;0.10;;;;;;;;;;5113070;28;20192;-76
2022/04/20 06:25:11;;;;;;;0.10;0.10;;;;;;;;;;5075506;28;20241;-75
2022/04/20 06:27:39;;;;;;;0.10;0.10;;;;;;;;;;5114748;28;20420;-76
2022/04/20 06:30:05;;;;;;;0.10;0.10;;;;;;;;;;5083948;28;20295;-75
2022/04/20 06:32:32;;;;;;;0.10;0.10;;;;;;;;;;5072166;28;20237;-75
2022/04/20 06:34:58;;;;;;;0.10;0.10;;;;;;;;;;5084004;28;20512;-76
2022/04/20 06:37:24;;;;;;;0.10;0.10;;;;;;;;;;5105796;28;20421;-75
2022/04/20 06:39:56;;;;;;;0.10;0.10;;;;;;;;;;5083847;28;20206;-76
2022/04/20 06:42:22;;;;;;;0.10;0.10;;;;;;;;;;5106075;28;20256;-76
2022/04/20 06:44:50;;;;;;;0.10;0.10;;;;;;;;;;5083448;28;20521;-76
2022/04/20 06:47:16;;;;;;;0.10;0.10;;;;;;;;;;5105999;28;20402;-76
2022/04/20 06:49:43;;;;;;;0.13;0.13;;;;;;;;;;5083508;28;20205;-76
2022/04/20 07:00:25;;;;;;;0.10;0.10;;;;;;;;;;5052111;28;20418;-76
2022/04/20 07:02:58;;;;;;;0.10;0.10;;;;;;;;;;5110313;28;20194;-76
2022/04/20 07:05:24;;;;;;;0.10;0.10;;;;;;;;;;5078673;28;20519;-76
2022/04/20 07:07:51;;;;;;;0.10;0.10;;;;;;;;;;5110715;28;20188;-76
2022/04/20 07:10:17;;;;;;;0.10;0.10;;;;;;;;;;5075988;28;20249;-76
2022/04/20 07:12:43;;;;;;;0.10;0.10;;;;;;;;;;5112560;28;20195;-75
2022/04/20 07:15:10;;;;;;;0.10;0.10;;;;;;;;;;5073804;28;20579;-75
2022/04/20 07:17:37;;;;;;;0.10;0.10;;;;;;;;;;5114678;28;20236;-74
2022/04/20 07:20:06;;;;;;;0.10;0.10;;;;;;;;;;5083030;28;20434;-77
2022/04/20 07:22:33;;;;;;;0.10;0.10;;;;;;;;;;5105439;28;20300;-75
2022/04/20 07:25:00;;;;;;;0.10;0.10;;;;;;;;;;5083116;28;20358;-75
2022/04/20 07:27:26;;;;;;;0.10;0.10;;;;;;;;;;5105128;28;20529;-76
2022/04/20 07:29:52;;;;;;;0.10;0.10;;;;;;;;;;5083039;28;20217;-75
2022/04/20 07:32:19;;;;;;;0.10;0.10;;;;;;;;;;5105496;28;20238;-74
2022/04/20 07:34:46;;;;;;;0.10;0.10;;;;;;;;;;5083173;28;20484;-75
2022/04/20 07:37:12;;;;;;;0.10;0.10;;;;;;;;;;5104853;28;20238;-76
2022/04/20 07:39:39;;;;;;;0.10;0.10;;;;;;;;;;5082678;28;20203;-76
2022/04/20 07:42:06;;;;;;;0.10;0.10;;;;;;;;;;5104621;28;20240;-76
2022/04/20 07:44:32;;;;;;;0.13;0.13;;;;;;;;;;5083086;28;20269;-75
2022/04/20 07:46:58;;;;;;;0.10;0.10;;;;;;;;;;5102573;28;20528;-76
2022/04/20 07:52:10;;;;;;;0.10;0.10;;;;;;;;;;5105175;28;20246;-77
2022/04/20 07:54:36;;;;;;;0.10;0.10;;;;;;;;;;5082731;28;20206;-77
2022/04/20 07:57:03;;;;;;;0.10;0.10;;;;;;;;;;5104509;28;20237;-77
2022/04/20 07:59:29;;;;;;;0.10;0.10;;;;;;;;;;5082966;28;20210;-78
2022/04/20 08:01:55;;;;;;;0.10;0.10;;;;;;;;;;5102359;28;20245;-76
2022/04/20 08:04:22;;;;;;;0.10;0.10;;;;;;;;;;5085065;28;20249;-75
2022/04/20 08:06:49;;;;;;;0.10;0.10;;;;;;;;;;5100369;28;20350;-70
2022/04/20 08:09:16;;;;;;;0.10;0.10;;;;;;;;;;5087560;28;20320;-71
2022/04/20 08:11:43;;;;;;;0.10;0.10;;;;;;;;;;5102824;28;20441;-71
2022/04/20 08:14:12;;;;;;;0.10;0.10;;;;;;;;;;5092729;28;20277;-70
2022/04/20 08:16:38;;;;;;;0.10;0.10;;;;;;;;;;5101875;28;20275;-70
2022/04/20 08:19:06;;;;;;;0.10;0.10;;;;;;;;;;5093921;28;20222;-72
2022/04/20 08:21:33;;;;;;;0.10;0.10;;;;;;;;;;5099823;28;20493;-70
2022/04/20 08:23:59;;;;;;;0.10;0.10;;;;;;;;;;5095292;28;20207;-70
2022/04/20 08:26:27;;;;;;;0.10;0.10;;;;;;;;;;5097762;28;20519;-71
2022/04/20 08:28:53;;;;;;;0.10;0.10;;;;;;;;;;5096922;28;20203;-70
2022/04/20 08:31:19;;;;;;;0.10;0.10;;;;;;;;;;5092713;28;20263;-70
2022/04/20 08:33:46;;;;;;;0.10;0.10;;;;;;;;;;5098752;28;20495;-71
2022/04/20 08:36:12;;;;;;;0.10;0.10;;;;;;;;;;5094024;28;20241;-70
2022/04/20 08:38:38;;;;;;;0.10;0.10;;;;;;;;;;5100097;28;20227;-70
2022/04/20 08:41:06;;;;;;;0.10;0.10;;;;;;;;;;5092200;28;20240;-70
2022/04/20 08:43:35;;;;;;;0.10;0.10;;;;;;;;;;5101863;28;20237;-71
2022/04/20 08:46:02;;;;;;;0.10;0.10;;;;;;;;;;5089016;28;20443;-70
2022/04/20 08:48:29;;;;;;;0.10;0.10;;;;;;;;;;5103481;28;20245;-70
2022/04/20 08:50:56;;;;;;;0.10;0.10;;;;;;;;;;5088981;28;20237;-70
2022/04/20 08:53:22;;;;;;;0.10;0.10;;;;;;;;;;5105560;28;20381;-70
2022/04/20 08:57:15;;;;;;;0.10;0.10;;;;;;;;;;5087068;28;20478;-70
2022/04/20 08:58:36;;;;;;;0.10;0.10;;;;;;;;;;5101501;28;20211;-69
2022/04/20 09:01:04;;;;;;;0.10;0.10;;;;;;;;;;5090941;28;20291;-71
2022/04/20 09:03:31;;;;;;;0.10;0.10;;;;;;;;;;5102329;28;20207;-71
2022/04/20 09:05:58;;;;;;;0.10;0.10;;;;;;;;;;5089160;28;20329;-70
2022/04/20 09:08:25;;;;;;;0.10;0.10;;;;;;;;;;5104573;28;20200;-71
2022/04/20 09:10:53;;;;;;;0.00;0.00;;;;;;;;;;5087835;28;20242;-70
2022/04/20 09:13:30;;;;;;;0.10;0.10;;;;;;;;;;5105257;28;20212;-71
2022/04/20 09:16:04;;;;;;;0.10;0.10;;;;;;;;;;5087885;28;20241;-70
2022/04/20 09:18:31;;;;;;;0.10;0.10;;;;;;;;;;5103364;28;20454;-72
2022/04/20 09:21:04;;;;;;;0.00;0.00;;;;;;;;;;5088294;28;20287;-71
2022/04/20 09:23:30;;;;;;;0.10;0.10;;;;;;;;;;5101571;28;20226;-68
2022/04/20 09:25:56;;;;;;;0.10;0.10;;;;;;;;;;5089264;28;20253;-70
2022/04/20 09:28:24;;;;;;;0.10;0.10;;;;;;;;;;5103447;28;20241;-69
2022/04/20 09:30:51;;;;;;;0.10;0.10;;;;;;;;;;5087216;28;20244;-71
2022/04/20 09:33:18;;;;;;;0.10;0.10;;;;;;;;;;5105177;28;20512;-70
2022/04/20 09:35:46;;;;;;;0.10;0.10;;;;;;;;;;5085650;28;20463;-69
2022/04/20 09:38:13;;;;;;;0.10;0.10;;;;;;;;;;5106089;28;20238;-70
2022/04/20 09:40:40;;;;;;;0.10;0.10;;;;;;;;;;5084337;28;20258;-71
2022/04/20 09:43:07;;;;;;;0.10;0.10;;;;;;;;;;5107665;28;20237;-72
2022/04/20 09:45:34;;;;;;;0.10;0.10;;;;;;;;;;5082624;28;20275;-72
2022/04/20 09:51:06;;;;;;;0.10;0.10;;;;;;;;;;5088560;28;20267;-70
2022/04/20 09:53:32;;;;;;;0.10;0.10;;;;;;;;;;5100702;28;20262;-70
2022/04/20 09:56:14;;;;;;;0.10;0.10;;;;;;;;;;5089084;28;20264;-70
2022/04/20 09:58:40;;;;;;;0.10;0.10;;;;;;;;;;5098365;28;20275;-70
2022/04/20 10:01:07;;;;;;;0.10;0.10;;;;;;;;;;5090225;28;20366;-70
2022/04/20 10:03:33;;;;;;;0.10;0.10;;;;;;;;;;5101457;28;20203;-71
2022/04/20 10:06:02;;;;;;;0.10;0.10;;;;;;;;;;5089089;28;20252;-70
2022/04/20 10:08:30;;;;;;;0.10;0.10;;;;;;;;;;5101309;28;20382;-75
2022/04/20 10:10:57;;;;;;;0.10;0.10;;;;;;;;;;5088287;28;20466;-76
2022/04/20 10:13:29;;;;;;;0.10;0.10;;;;;;;;;;5103141;28;20214;-76
2022/04/20 10:16:06;;;;;;;0.10;0.10;;;;;;;;;;5087772;28;20620;-76
2022/04/20 10:18:33;;;;;;;0.10;0.10;;;;;;;;;;5100279;28;20215;-75
2022/04/20 10:21:02;;;;;;;0.10;0.10;;;;;;;;;;5088837;28;20493;-77
2022/04/20 10:23:29;;;;;;;0.10;0.10;;;;;;;;;;5101519;28;20203;-77
2022/04/20 10:25:57;;;;;;;0.10;0.10;;;;;;;;;;5087682;28;20309;-77
2022/04/20 10:28:28;;;;;;;0.10;0.10;;;;;;;;;;5102300;28;20208;-77
2022/04/20 10:31:04;;;;;;;0.10;0.10;;;;;;;;;;5087307;28;20242;-77
2022/04/20 10:33:31;;;;;;;0.10;0.10;;;;;;;;;;5099625;28;20466;-77
2022/04/20 10:36:04;;;;;;;0.10;0.10;;;;;;;;;;5087820;28;20237;-76
2022/04/20 10:38:31;;;;;;;0.10;0.10;;;;;;;;;;5100101;28;20418;-75
2022/04/20 10:40:59;;;;;;;0.10;0.10;;;;;;;;;;5088070;28;20230;-76
2022/04/20 10:43:27;;;;;;;0.10;0.10;;;;;;;;;;5101237;28;20293;-75
2022/04/20 10:46:03;;;;;;;0.10;0.10;;;;;;;;;;5086158;28;20237;-77
2022/04/20 10:48:42;;;;;;;0.10;0.10;;;;;;;;;;5101293;28;20235;-76
2022/04/20 10:51:14;;;;;;;0.10;0.10;;;;;;;;;;5090256;28;20399;-76
2022/04/20 10:53:42;;;;;;;0.10;0.10;;;;;;;;;;5097934;28;20503;-76
2022/04/20 10:56:08;;;;;;;0.10;0.10;;;;;;;;;;5090165;28;20244;-76
2022/04/20 10:58:35;;;;;;;0.10;0.10;;;;;;;;;;5099724;28;20230;-76
2022/04/20 11:01:08;;;;;;;0.10;0.10;;;;;;;;;;5088720;28;20251;-77
2022/04/20 11:03:49;;;;;;;0.10;0.10;;;;;;;;;;5099339;28;20403;-76
2022/04/20 11:06:16;;;;;;;0.10;0.10;;;;;;;;;;5092179;28;20277;-71
2022/04/20 11:08:43;;;;;;;0.10;0.10;;;;;;;;;;5096629;28;20402;-71
2022/04/20 11:19:48;;;;;;;0.10;0.10;;;;;;;;;;5083192;28;20219;-71
2022/04/20 11:22:15;;;;;;;0.10;0.10;;;;;;;;;;5105756;28;20307;-71
2022/04/20 11:24:42;;;;;;;0.10;0.10;;;;;;;;;;5083338;28;20203;-71
2022/04/20 11:27:10;;;;;;;0.10;0.10;;;;;;;;;;5105202;28;20241;-70
2022/04/20 11:29:37;;;;;;;0.10;0.10;;;;;;;;;;5082939;28;20241;-71
2022/04/20 11:32:04;;;;;;;0.10;0.10;;;;;;;;;;5104707;28;20240;-70
2022/04/20 11:34:32;;;;;;;0.10;0.10;;;;;;;;;;5083350;28;20251;-71
2022/04/20 11:37:00;;;;;;;0.10;0.10;;;;;;;;;;5103379;28;20568;-71
2022/04/20 11:39:28;;;;;;;0.10;0.10;;;;;;;;;;5084020;28;20269;-71
2022/04/20 11:41:55;;;;;;;0.10;0.10;;;;;;;;;;5102475;28;20237;-70
2022/04/20 11:44:22;;;;;;;0.10;0.10;;;;;;;;;;5084773;28;20446;-72
2022/04/20 11:46:49;;;;;;;0.10;0.10;;;;;;;;;;5100492;28;20299;-70
2022/04/20 11:49:15;;;;;;;0.10;0.10;;;;;;;;;;5087417;28;20199;-70
2022/04/20 11:51:45;;;;;;;0.10;0.10;;;;;;;;;;5097903;28;20282;-69
2022/04/20 11:54:17;;;;;;;0.10;0.10;;;;;;;;;;5088511;28;20257;-72
2022/04/20 11:56:45;;;;;;;0.10;0.10;;;;;;;;;;5099263;28;20246;-71
2022/04/20 11:59:12;;;;;;;0.10;0.10;;;;;;;;;;5088510;28;20227;-71
2022/04/20 12:01:39;;;;;;;0.10;0.10;;;;;;;;;;5096340;28;20238;-70
2022/04/20 12:04:11;;;;;;;0.10;0.10;;;;;;;;;;5090783;28;20199;-72
2022/04/20 12:06:45;;;;;;;0.10;0.10;;;;;;;;;;5097556;28;20233;-70
2022/04/20 12:09:17;;;;;;;0.10;0.10;;;;;;;;;;5088191;28;20195;-72
2022/04/20 12:11:43;;;;;;;0.10;0.10;;;;;;;;;;5096222;28;20245;-70
2022/04/20 12:14:19;;;;;;;0.10;0.10;;;;;;;;;;5091251;28;20513;-71
2022/04/20 12:16:48;;;;;;;0.10;0.10;;;;;;;;;;5097988;28;20300;-70
2022/04/20 12:19:17;;;;;;;0.10;0.10;;;;;;;;;;5088792;28;20334;-70
2022/04/20 12:21:44;;;;;;;0.10;0.10;;;;;;;;;;5094944;28;20237;-71
2022/04/20 12:24:12;;;;;;;0.10;0.10;;;;;;;;;;5091935;28;20231;-71
2022/04/20 12:26:42;;;;;;;0.10;0.10;;;;;;;;;;5097019;28;20267;-71
2022/04/20 12:29:09;;;;;;;0.10;0.10;;;;;;;;;;5089150;28;20371;-71
2022/04/20 12:31:44;;;;;;;0.10;0.10;;;;;;;;;;5086691;28;20245;-71
2022/04/20 12:34:12;;;;;;;0.10;0.10;;;;;;;;;;5098139;28;20192;-71
2022/04/20 12:36:53;;;;;;;0.10;0.10;;;;;;;;;;5092608;28;20576;-71
2022/04/20 12:39:26;;;;;;;0.10;0.10;;;;;;;;;;5090715;28;20295;-70
2022/04/20 12:41:54;;;;;;;0.00;0.00;;;;;;;;;;5099375;28;20315;-72
2022/04/20 12:44:51;;;;;;;0.10;0.10;;;;;;;;;;5087612;28;20390;-70
2022/04/20 12:47:39;;;;;;;0.10;0.10;;;;;;;;;;5094007;28;20248;-70
2022/04/20 12:50:16;;;;;;;0.10;0.10;;;;;;;;;;5082250;28;20227;-72
2022/04/20 12:52:49;;;;;;;0.10;0.10;;;;;;;;;;5076119;28;20332;-71
2022/04/20 12:55:16;;;;;;;0.10;0.10;;;;;;;;;;5074667;28;20399;-71
2022/04/20 13:03:24;;;;;;;0.10;0.10;;;;;;;;;;5108375;28;20267;-71
2022/04/20 13:05:56;;;;;;;0.10;0.10;;;;;;;;;;5084969;28;20265;-72
2022/04/20 13:08:28;;;;;;;0.10;0.10;;;;;;;;;;5107503;28;20300;-71
2022/04/20 13:10:57;;;;;;;0.03;0.03;;;;;;;;;;5088164;28;20246;-72
2022/04/20 13:13:24;;;;;;;0.10;0.10;;;;;;;;;;5104626;28;20214;-72
2022/04/20 13:15:51;;;;;;;0.10;0.10;;;;;;;;;;5075231;28;20483;-71
2022/04/20 13:18:17;;;;;;;0.10;0.10;;;;;;;;;;5085420;28;20206;-72
2022/04/20 13:20:45;;;;;;;0.10;0.10;;;;;;;;;;5075201;28;20669;-72
2022/04/20 13:23:16;;;;;;;0.10;0.10;;;;;;;;;;5085576;28;20227;-72
2022/04/20 13:28:28;;;;;;;0.10;0.10;;;;;;;;;;5104069;28;20198;-70
2022/04/20 13:30:55;;;;;;;0.10;0.10;;;;;;;;;;5063582;28;20242;-71
2022/04/20 13:33:22;;;;;;;0.10;0.10;;;;;;;;;;5043208;28;20249;-71
2022/04/20 13:35:52;;;;;;;0.10;0.10;;;;;;;;;;5032641;28;20247;-71
2022/04/20 13:38:19;;;;;;;0.10;0.10;;;;;;;;;;5043148;28;20271;-70
2022/04/20 13:40:45;;;;;;;0.10;0.10;;;;;;;;;;5031441;28;20547;-71
2022/04/20 13:43:11;;;;;;;0.10;0.10;;;;;;;;;;5043040;28;20221;-71
2022/04/20 13:45:40;;;;;;;0.10;0.10;;;;;;;;;;5032527;28;20245;-71
2022/04/20 13:48:08;;;;;;;0.10;0.10;;;;;;;;;;5043161;28;20250;-70
2022/04/20 13:50:34;;;;;;;0.10;0.10;;;;;;;;;;5032609;28;20211;-72
2022/04/20 13:53:04;;;;;;;0.10;0.10;;;;;;;;;;5043009;28;20212;-69
2022/04/20 13:55:30;;;;;;;0.10;0.10;;;;;;;;;;5032144;28;20209;-70
2022/04/20 13:57:57;;;;;;;0.10;0.10;;;;;;;;;;5083825;28;20208;-69
2022/04/20 14:00:26;;;;;;;0.10;0.10;;;;;;;;;;5078823;28;20444;-70
2022/04/20 14:02:53;;;;;;;0.10;0.10;;;;;;;;;;5112397;28;20360;-71
2022/04/20 14:05:21;;;;;;;0.10;0.10;;;;;;;;;;5077005;28;20271;-70
2022/04/20 14:07:48;;;;;;;0.10;0.10;;;;;;;;;;5114193;28;20192;-70
2022/04/20 14:10:17;;;;;;;0.10;0.10;;;;;;;;;;5081366;28;20259;-73
2022/04/20 14:12:44;;;;;;;0.10;0.10;;;;;;;;;;5116633;28;20216;-72
2022/04/20 14:15:11;;;;;;;0.10;0.10;;;;;;;;;;5075123;28;20207;-72
2022/04/20 14:17:42;;;;;;;0.10;0.10;;;;;;;;;;5116160;28;20252;-72
2022/04/20 14:20:10;;;;;;;0.10;0.10;;;;;;;;;;5084568;28;20289;-71
2022/04/20 14:22:37;;;;;;;0.10;0.10;;;;;;;;;;5105812;28;20249;-71
2022/04/20 14:33:21;;;;;;;0.10;0.10;;;;;;;;;;5084398;28;20381;-71
2022/04/20 14:35:48;;;;;;;0.10;0.10;;;;;;;;;;5085085;28;20568;-72
2022/04/20 14:38:15;;;;;;;0.10;0.10;;;;;;;;;;5105112;28;20233;-72
2022/04/20 14:40:41;;;;;;;0.10;0.10;;;;;;;;;;5083487;28;20245;-72
2022/04/20 14:43:09;;;;;;;0.10;0.10;;;;;;;;;;5106150;28;20213;-72
2022/04/20 14:45:35;;;;;;;0.10;0.10;;;;;;;;;;5081814;28;20250;-72
2022/04/20 14:48:01;;;;;;;0.10;0.10;;;;;;;;;;5107778;28;20293;-72
2022/04/20 14:50:28;;;;;;;0.10;0.10;;;;;;;;;;5079170;28;20234;-71
2022/04/20 14:52:55;;;;;;;0.10;0.10;;;;;;;;;;5110298;28;20191;-72
2022/04/20 14:55:26;;;;;;;0.10;0.10;;;;;;;;;;5076931;28;20395;-72
2022/04/20 14:57:52;;;;;;;0.10;0.10;;;;;;;;;;5110285;28;20194;-72
2022/04/20 15:00:21;;;;;;;0.00;0.00;;;;;;;;;;5072853;28;20235;-73
2022/04/20 15:02:50;;;;;;;0.10;0.10;;;;;;;;;;5112483;28;20352;-73
2022/04/20 15:05:16;;;;;;;0.10;0.10;;;;;;;;;;5076508;28;20269;-73
2022/04/20 15:07:44;;;;;;;0.10;0.10;;;;;;;;;;5112954;28;20503;-72
2022/04/20 15:10:11;;;;;;;0.10;0.10;;;;;;;;;;5074240;28;20224;-72
2022/04/20 15:12:39;;;;;;;0.10;0.10;;;;;;;;;;5113938;28;20260;-72
2022/04/20 15:15:06;;;;;;;0.10;0.10;;;;;;;;;;5075770;28;20213;-73
2022/04/20 15:17:34;;;;;;;0.10;0.10;;;;;;;;;;5115316;28;20449;-72
2022/04/20 15:20:00;;;;;;;0.10;0.10;;;;;;;;;;5082740;28;20293;-73
2022/04/20 15:22:26;;;;;;;0.10;0.10;;;;;;;;;;5105540;28;20249;-73
2022/04/20 15:24:53;;;;;;;0.10;0.10;;;;;;;;;;5083259;28;20325;-73
2022/04/20 15:27:19;;;;;;;0.10;0.10;;;;;;;;;;5105279;28;20240;-71
2022/04/20 15:29:45;;;;;;;0.10;0.10;;;;;;;;;;5083050;28;20207;-71
2022/04/20 15:32:12;;;;;;;0.10;0.10;;;;;;;;;;5105519;28;20443;-71
2022/04/20 15:34:40;;;;;;;0.10;0.10;;;;;;;;;;5082995;28;20206;-72
2022/04/20 15:37:06;;;;;;;0.10;0.10;;;;;;;;;;5105136;28;20253;-72